sensor_id;sensor_type;location;lat;lon;timestamp;P1;durP1;ratioP1;P2;durP2;ratioP2
8044;SDS011;4065;48.754;9.982;2024-01-15T00:02:50;49.83;;;25.85;;
8044;SDS011;4065;48.754;9.982;2024-01-15T00:06:11;51.58;;;25.73;;
8044;SDS011;4065;48.754;9.982;2024-01-15T00:09:35;54.53;;;25.63;;
8044;SDS011;4065;48.754;9.982;2024-01-15T00:12:57;55.45;;;25.05;;
8044;SDS011;4065;48.754;9.982;2024-01-15T00:16:19;57.83;;;26.45;;
8044;SDS011;4065;48.754;9.982;2024-01-15T00:19:41;62.28;;;26.05;;
8044;SDS011;4065;48.754;9.982;2024-01-15T00:23:03;48.53;;;24.23;;
8044;SDS011;4065;48.754;9.982;2024-01-15T00:26:26;49.10;;;21.80;;
8044;SDS011;4065;48.754;9.982;2024-01-15T00:29:48;51.47;;;24.02;;
8044;SDS011;4065;48.754;9.982;2024-01-15T00:33:10;55.28;;;24.65;;
8044;SDS011;4065;48.754;9.982;2024-01-15T00:36:33;45.17;;;22.67;;
8044;SDS011;4065;48.754;9.982;2024-01-15T00:39:55;43.63;;;22.73;;
8044;SDS011;4065;48.754;9.982;2024-01-15T00:43:18;43.40;;;21.30;;
8044;SDS011;4065;48.754;9.982;2024-01-15T00:46:43;46.30;;;22.27;;
8044;SDS011;4065;48.754;9.982;2024-01-15T00:50:06;42.60;;;21.25;;
8044;SDS011;4065;48.754;9.982;2024-01-15T00:53:28;40.83;;;20.50;;
8044;SDS011;4065;48.754;9.982;2024-01-15T00:56:50;41.40;;;20.38;;
8044;SDS011;4065;48.754;9.982;2024-01-15T01:00:14;42.10;;;20.58;;
8044;SDS011;4065;48.754;9.982;2024-01-15T01:03:36;48.30;;;23.65;;
8044;SDS011;4065;48.754;9.982;2024-01-15T01:06:58;37.85;;;21.80;;
8044;SDS011;4065;48.754;9.982;2024-01-15T01:10:20;36.85;;;18.83;;
8044;SDS011;4065;48.754;9.982;2024-01-15T01:13:42;45.28;;;19.63;;
8044;SDS011;4065;48.754;9.982;2024-01-15T01:17:05;33.70;;;17.52;;
8044;SDS011;4065;48.754;9.982;2024-01-15T01:20:27;37.33;;;18.65;;
8044;SDS011;4065;48.754;9.982;2024-01-15T01:23:49;35.35;;;17.73;;
8044;SDS011;4065;48.754;9.982;2024-01-15T01:27:11;30.60;;;15.85;;
8044;SDS011;4065;48.754;9.982;2024-01-15T01:30:33;27.08;;;15.15;;
8044;SDS011;4065;48.754;9.982;2024-01-15T01:33:56;29.58;;;14.48;;
8044;SDS011;4065;48.754;9.982;2024-01-15T01:37:18;25.75;;;13.32;;
8044;SDS011;4065;48.754;9.982;2024-01-15T01:40:40;26.55;;;14.55;;
8044;SDS011;4065;48.754;9.982;2024-01-15T01:44:02;24.92;;;14.02;;
8044;SDS011;4065;48.754;9.982;2024-01-15T01:47:24;30.00;;;15.25;;
8044;SDS011;4065;48.754;9.982;2024-01-15T01:50:48;28.33;;;14.23;;
8044;SDS011;4065;48.754;9.982;2024-01-15T01:54:10;25.63;;;14.20;;
8044;SDS011;4065;48.754;9.982;2024-01-15T01:57:35;26.77;;;15.02;;
8044;SDS011;4065;48.754;9.982;2024-01-15T02:00:57;29.30;;;15.52;;
8044;SDS011;4065;48.754;9.982;2024-01-15T02:04:19;29.05;;;14.85;;
8044;SDS011;4065;48.754;9.982;2024-01-15T02:07:42;28.60;;;15.13;;
8044;SDS011;4065;48.754;9.982;2024-01-15T02:11:05;33.65;;;15.65;;
8044;SDS011;4065;48.754;9.982;2024-01-15T02:14:27;25.35;;;13.55;;
8044;SDS011;4065;48.754;9.982;2024-01-15T02:17:58;25.17;;;14.48;;
8044;SDS011;4065;48.754;9.982;2024-01-15T02:21:21;29.55;;;13.93;;
8044;SDS011;4065;48.754;9.982;2024-01-15T02:24:44;25.52;;;15.57;;
8044;SDS011;4065;48.754;9.982;2024-01-15T02:28:06;28.55;;;15.10;;
8044;SDS011;4065;48.754;9.982;2024-01-15T02:31:29;24.48;;;15.05;;
8044;SDS011;4065;48.754;9.982;2024-01-15T02:34:51;27.30;;;15.43;;
8044;SDS011;4065;48.754;9.982;2024-01-15T02:38:13;25.88;;;15.05;;
8044;SDS011;4065;48.754;9.982;2024-01-15T02:41:37;25.60;;;14.82;;
8044;SDS011;4065;48.754;9.982;2024-01-15T02:44:58;25.55;;;15.48;;
8044;SDS011;4065;48.754;9.982;2024-01-15T02:48:20;28.38;;;14.30;;
8044;SDS011;4065;48.754;9.982;2024-01-15T02:51:42;27.65;;;13.77;;
8044;SDS011;4065;48.754;9.982;2024-01-15T02:55:04;28.27;;;14.40;;
8044;SDS011;4065;48.754;9.982;2024-01-15T02:58:28;26.95;;;15.15;;
8044;SDS011;4065;48.754;9.982;2024-01-15T03:01:50;27.77;;;14.95;;
8044;SDS011;4065;48.754;9.982;2024-01-15T03:05:12;28.17;;;14.27;;
8044;SDS011;4065;48.754;9.982;2024-01-15T03:08:34;27.15;;;13.95;;
8044;SDS011;4065;48.754;9.982;2024-01-15T03:11:56;24.55;;;14.52;;
8044;SDS011;4065;48.754;9.982;2024-01-15T03:15:20;23.98;;;14.40;;
8044;SDS011;4065;48.754;9.982;2024-01-15T03:18:41;26.00;;;13.88;;
8044;SDS011;4065;48.754;9.982;2024-01-15T03:22:03;27.52;;;14.05;;
8044;SDS011;4065;48.754;9.982;2024-01-15T03:25:28;28.30;;;13.75;;
8044;SDS011;4065;48.754;9.982;2024-01-15T03:28:50;24.15;;;12.95;;
8044;SDS011;4065;48.754;9.982;2024-01-15T03:32:13;23.27;;;13.57;;
8044;SDS011;4065;48.754;9.982;2024-01-15T03:35:36;26.98;;;13.25;;
8044;SDS011;4065;48.754;9.982;2024-01-15T03:38:58;23.50;;;13.32;;
8044;SDS011;4065;48.754;9.982;2024-01-15T03:42:20;26.50;;;14.25;;
8044;SDS011;4065;48.754;9.982;2024-01-15T03:45:42;25.55;;;14.13;;
8044;SDS011;4065;48.754;9.982;2024-01-15T03:49:18;22.73;;;13.57;;
8044;SDS011;4065;48.754;9.982;2024-01-15T03:52:40;20.17;;;13.70;;
8044;SDS011;4065;48.754;9.982;2024-01-15T03:56:02;26.92;;;13.80;;
8044;SDS011;4065;48.754;9.982;2024-01-15T03:59:24;25.63;;;14.65;;
8044;SDS011;4065;48.754;9.982;2024-01-15T04:02:46;24.88;;;13.45;;
8044;SDS011;4065;48.754;9.982;2024-01-15T04:06:09;23.75;;;12.48;;
8044;SDS011;4065;48.754;9.982;2024-01-15T04:09:31;28.00;;;13.15;;
8044;SDS011;4065;48.754;9.982;2024-01-15T04:12:53;22.77;;;12.65;;
8044;SDS011;4065;48.754;9.982;2024-01-15T04:16:15;24.90;;;12.93;;
8044;SDS011;4065;48.754;9.982;2024-01-15T04:19:36;24.75;;;13.82;;
8044;SDS011;4065;48.754;9.982;2024-01-15T04:23:00;25.58;;;13.40;;
8044;SDS011;4065;48.754;9.982;2024-01-15T04:26:22;23.33;;;14.23;;
8044;SDS011;4065;48.754;9.982;2024-01-15T04:29:43;23.75;;;13.73;;
8044;SDS011;4065;48.754;9.982;2024-01-15T04:33:05;23.00;;;13.65;;
8044;SDS011;4065;48.754;9.982;2024-01-15T04:36:27;23.73;;;13.70;;
8044;SDS011;4065;48.754;9.982;2024-01-15T04:39:51;25.25;;;13.68;;
8044;SDS011;4065;48.754;9.982;2024-01-15T04:43:15;24.23;;;14.02;;
8044;SDS011;4065;48.754;9.982;2024-01-15T04:46:37;23.58;;;13.60;;
8044;SDS011;4065;48.754;9.982;2024-01-15T04:49:58;26.35;;;13.88;;
8044;SDS011;4065;48.754;9.982;2024-01-15T04:53:20;21.02;;;13.38;;
8044;SDS011;4065;48.754;9.982;2024-01-15T04:56:43;23.65;;;12.98;;
8044;SDS011;4065;48.754;9.982;2024-01-15T05:00:06;21.58;;;13.05;;
8044;SDS011;4065;48.754;9.982;2024-01-15T05:03:29;21.63;;;12.52;;
8044;SDS011;4065;48.754;9.982;2024-01-15T05:06:51;22.13;;;13.48;;
8044;SDS011;4065;48.754;9.982;2024-01-15T05:10:12;24.83;;;14.35;;
8044;SDS011;4065;48.754;9.982;2024-01-15T05:13:36;26.15;;;14.20;;
8044;SDS011;4065;48.754;9.982;2024-01-15T05:16:57;20.20;;;12.48;;
8044;SDS011;4065;48.754;9.982;2024-01-15T05:20:19;27.20;;;13.32;;
8044;SDS011;4065;48.754;9.982;2024-01-15T05:23:41;26.42;;;13.50;;
8044;SDS011;4065;48.754;9.982;2024-01-15T05:27:03;27.70;;;13.98;;
8044;SDS011;4065;48.754;9.982;2024-01-15T05:30:26;24.88;;;13.80;;
8044;SDS011;4065;48.754;9.982;2024-01-15T05:33:48;27.13;;;13.23;;
8044;SDS011;4065;48.754;9.982;2024-01-15T05:37:10;23.38;;;12.93;;
8044;SDS011;4065;48.754;9.982;2024-01-15T05:40:32;22.38;;;12.73;;
8044;SDS011;4065;48.754;9.982;2024-01-15T05:43:54;24.70;;;13.90;;
8044;SDS011;4065;48.754;9.982;2024-01-15T05:47:17;21.20;;;12.85;;
8044;SDS011;4065;48.754;9.982;2024-01-15T05:50:39;25.08;;;13.88;;
8044;SDS011;4065;48.754;9.982;2024-01-15T05:54:01;27.30;;;14.80;;
8044;SDS011;4065;48.754;9.982;2024-01-15T05:57:23;31.55;;;16.23;;
8044;SDS011;4065;48.754;9.982;2024-01-15T06:00:45;34.42;;;17.83;;
8044;SDS011;4065;48.754;9.982;2024-01-15T06:04:08;26.15;;;15.40;;
8044;SDS011;4065;48.754;9.982;2024-01-15T06:07:30;28.75;;;15.18;;
8044;SDS011;4065;48.754;9.982;2024-01-15T06:10:51;22.92;;;12.30;;
8044;SDS011;4065;48.754;9.982;2024-01-15T06:14:13;23.45;;;14.00;;
8044;SDS011;4065;48.754;9.982;2024-01-15T06:17:35;25.10;;;14.18;;
8044;SDS011;4065;48.754;9.982;2024-01-15T06:20:59;24.02;;;13.73;;
8044;SDS011;4065;48.754;9.982;2024-01-15T06:24:21;21.50;;;13.05;;
8044;SDS011;4065;48.754;9.982;2024-01-15T06:27:42;24.33;;;14.80;;
8044;SDS011;4065;48.754;9.982;2024-01-15T06:31:05;23.60;;;14.32;;
8044;SDS011;4065;48.754;9.982;2024-01-15T06:34:27;24.63;;;12.95;;
8044;SDS011;4065;48.754;9.982;2024-01-15T06:37:51;18.58;;;11.93;;
8044;SDS011;4065;48.754;9.982;2024-01-15T06:41:13;20.38;;;12.52;;
8044;SDS011;4065;48.754;9.982;2024-01-15T06:44:35;25.17;;;12.82;;
8044;SDS011;4065;48.754;9.982;2024-01-15T06:47:57;22.95;;;13.13;;
8044;SDS011;4065;48.754;9.982;2024-01-15T06:51:18;25.95;;;13.23;;
8044;SDS011;4065;48.754;9.982;2024-01-15T06:54:42;21.73;;;13.20;;
8044;SDS011;4065;48.754;9.982;2024-01-15T06:58:03;24.77;;;13.38;;
8044;SDS011;4065;48.754;9.982;2024-01-15T07:01:25;22.67;;;12.50;;
8044;SDS011;4065;48.754;9.982;2024-01-15T07:04:50;23.13;;;13.50;;
8044;SDS011;4065;48.754;9.982;2024-01-15T07:08:11;24.50;;;13.55;;
8044;SDS011;4065;48.754;9.982;2024-01-15T07:11:35;29.73;;;15.15;;
8044;SDS011;4065;48.754;9.982;2024-01-15T07:14:56;23.65;;;14.10;;
8044;SDS011;4065;48.754;9.982;2024-01-15T07:18:18;24.10;;;13.55;;
8044;SDS011;4065;48.754;9.982;2024-01-15T07:21:40;26.73;;;14.68;;
8044;SDS011;4065;48.754;9.982;2024-01-15T07:25:03;25.17;;;14.27;;
8044;SDS011;4065;48.754;9.982;2024-01-15T07:28:29;19.25;;;12.60;;
8044;SDS011;4065;48.754;9.982;2024-01-15T07:31:51;21.95;;;12.35;;
8044;SDS011;4065;48.754;9.982;2024-01-15T07:35:14;19.50;;;12.10;;
8044;SDS011;4065;48.754;9.982;2024-01-15T07:38:36;22.23;;;11.90;;
8044;SDS011;4065;48.754;9.982;2024-01-15T07:41:58;23.95;;;14.52;;
8044;SDS011;4065;48.754;9.982;2024-01-15T07:45:21;21.42;;;12.18;;
8044;SDS011;4065;48.754;9.982;2024-01-15T07:48:43;22.33;;;13.13;;
8044;SDS011;4065;48.754;9.982;2024-01-15T07:52:04;22.83;;;13.48;;
8044;SDS011;4065;48.754;9.982;2024-01-15T07:55:26;18.02;;;12.57;;
8044;SDS011;4065;48.754;9.982;2024-01-15T07:58:48;18.92;;;13.23;;
8044;SDS011;4065;48.754;9.982;2024-01-15T08:02:11;19.95;;;13.18;;
8044;SDS011;4065;48.754;9.982;2024-01-15T08:05:33;22.40;;;12.68;;
8044;SDS011;4065;48.754;9.982;2024-01-15T08:08:55;15.75;;;11.65;;
8044;SDS011;4065;48.754;9.982;2024-01-15T08:12:17;18.67;;;12.60;;
8044;SDS011;4065;48.754;9.982;2024-01-15T08:15:39;49.88;;;39.10;;
8044;SDS011;4065;48.754;9.982;2024-01-15T08:19:05;39.55;;;29.58;;
8044;SDS011;4065;48.754;9.982;2024-01-15T08:22:27;70.07;;;43.90;;
8044;SDS011;4065;48.754;9.982;2024-01-15T08:25:49;35.83;;;24.35;;
8044;SDS011;4065;48.754;9.982;2024-01-15T08:29:11;17.27;;;10.93;;
8044;SDS011;4065;48.754;9.982;2024-01-15T08:32:33;16.25;;;11.60;;
8044;SDS011;4065;48.754;9.982;2024-01-15T08:35:58;18.35;;;12.38;;
8044;SDS011;4065;48.754;9.982;2024-01-15T08:39:20;19.00;;;12.02;;
8044;SDS011;4065;48.754;9.982;2024-01-15T08:42:45;16.20;;;11.05;;
8044;SDS011;4065;48.754;9.982;2024-01-15T08:46:07;17.75;;;11.15;;
8044;SDS011;4065;48.754;9.982;2024-01-15T08:49:29;15.80;;;11.30;;
8044;SDS011;4065;48.754;9.982;2024-01-15T08:52:52;21.17;;;13.52;;
8044;SDS011;4065;48.754;9.982;2024-01-15T08:56:14;22.50;;;13.63;;
8044;SDS011;4065;48.754;9.982;2024-01-15T08:59:36;23.25;;;15.18;;
8044;SDS011;4065;48.754;9.982;2024-01-15T09:02:59;22.77;;;14.43;;
8044;SDS011;4065;48.754;9.982;2024-01-15T09:06:21;14.60;;;10.65;;
8044;SDS011;4065;48.754;9.982;2024-01-15T09:09:45;16.58;;;10.95;;
8044;SDS011;4065;48.754;9.982;2024-01-15T09:13:07;16.15;;;11.13;;
8044;SDS011;4065;48.754;9.982;2024-01-15T09:16:29;17.65;;;10.82;;
8044;SDS011;4065;48.754;9.982;2024-01-15T09:19:54;16.77;;;11.57;;
8044;SDS011;4065;48.754;9.982;2024-01-15T09:23:18;17.98;;;10.73;;
8044;SDS011;4065;48.754;9.982;2024-01-15T09:26:41;14.65;;;10.90;;
8044;SDS011;4065;48.754;9.982;2024-01-15T09:30:03;16.35;;;10.55;;
8044;SDS011;4065;48.754;9.982;2024-01-15T09:33:29;17.30;;;12.02;;
8044;SDS011;4065;48.754;9.982;2024-01-15T09:36:53;14.82;;;9.73;;
8044;SDS011;4065;48.754;9.982;2024-01-15T09:40:18;14.75;;;9.38;;
8044;SDS011;4065;48.754;9.982;2024-01-15T09:43:43;18.00;;;10.77;;
8044;SDS011;4065;48.754;9.982;2024-01-15T09:47:06;17.42;;;11.02;;
8044;SDS011;4065;48.754;9.982;2024-01-15T09:50:28;13.50;;;10.15;;
8044;SDS011;4065;48.754;9.982;2024-01-15T09:53:52;14.85;;;9.90;;
8044;SDS011;4065;48.754;9.982;2024-01-15T09:57:14;15.35;;;10.65;;
8044;SDS011;4065;48.754;9.982;2024-01-15T10:00:37;14.63;;;10.73;;
8044;SDS011;4065;48.754;9.982;2024-01-15T10:04:02;18.00;;;11.75;;
8044;SDS011;4065;48.754;9.982;2024-01-15T10:07:24;20.95;;;15.43;;
8044;SDS011;4065;48.754;9.982;2024-01-15T10:10:48;17.95;;;13.80;;
8044;SDS011;4065;48.754;9.982;2024-01-15T10:14:11;15.38;;;10.30;;
8044;SDS011;4065;48.754;9.982;2024-01-15T10:17:35;13.88;;;11.70;;
8044;SDS011;4065;48.754;9.982;2024-01-15T10:20:58;12.07;;;9.50;;
8044;SDS011;4065;48.754;9.982;2024-01-15T10:24:21;14.68;;;9.45;;
8044;SDS011;4065;48.754;9.982;2024-01-15T10:27:43;11.10;;;9.32;;
8044;SDS011;4065;48.754;9.982;2024-01-15T10:31:05;13.13;;;9.57;;
8044;SDS011;4065;48.754;9.982;2024-01-15T10:34:30;12.80;;;9.90;;
8044;SDS011;4065;48.754;9.982;2024-01-15T10:37:52;12.07;;;8.73;;
8044;SDS011;4065;48.754;9.982;2024-01-15T10:41:14;11.38;;;9.65;;
8044;SDS011;4065;48.754;9.982;2024-01-15T10:44:36;12.73;;;8.77;;
8044;SDS011;4065;48.754;9.982;2024-01-15T10:48:01;12.50;;;8.35;;
8044;SDS011;4065;48.754;9.982;2024-01-15T10:51:27;12.60;;;7.90;;
8044;SDS011;4065;48.754;9.982;2024-01-15T10:54:50;10.90;;;7.57;;
8044;SDS011;4065;48.754;9.982;2024-01-15T10:58:12;14.20;;;8.27;;
8044;SDS011;4065;48.754;9.982;2024-01-15T11:01:36;11.18;;;8.38;;
8044;SDS011;4065;48.754;9.982;2024-01-15T11:04:58;13.38;;;10.23;;
8044;SDS011;4065;48.754;9.982;2024-01-15T11:08:25;13.60;;;9.13;;
8044;SDS011;4065;48.754;9.982;2024-01-15T11:11:50;13.25;;;8.48;;
8044;SDS011;4065;48.754;9.982;2024-01-15T11:15:17;12.52;;;9.48;;
8044;SDS011;4065;48.754;9.982;2024-01-15T11:30:02;29.15;;;19.52;;
8044;SDS011;4065;48.754;9.982;2024-01-15T11:33:37;52.53;;;29.30;;
8044;SDS011;4065;48.754;9.982;2024-01-15T11:37:13;52.10;;;31.75;;
8044;SDS011;4065;48.754;9.982;2024-01-15T11:40:39;26.27;;;18.25;;
8044;SDS011;4065;48.754;9.982;2024-01-15T11:44:04;18.83;;;10.20;;
8044;SDS011;4065;48.754;9.982;2024-01-15T11:51:22;15.45;;;10.75;;
8044;SDS011;4065;48.754;9.982;2024-01-15T11:54:45;10.30;;;8.57;;
8044;SDS011;4065;48.754;9.982;2024-01-15T11:58:13;9.70;;;8.48;;
8044;SDS011;4065;48.754;9.982;2024-01-15T12:01:38;14.88;;;8.32;;
8044;SDS011;4065;48.754;9.982;2024-01-15T12:05:00;9.05;;;7.43;;
8044;SDS011;4065;48.754;9.982;2024-01-15T12:08:23;13.57;;;9.48;;
8044;SDS011;4065;48.754;9.982;2024-01-15T12:11:48;10.82;;;8.25;;
8044;SDS011;4065;48.754;9.982;2024-01-15T12:15:15;8.52;;;7.65;;
8044;SDS011;4065;48.754;9.982;2024-01-15T12:18:38;10.43;;;8.85;;
8044;SDS011;4065;48.754;9.982;2024-01-15T12:22:01;12.00;;;8.75;;
8044;SDS011;4065;48.754;9.982;2024-01-15T12:25:23;10.63;;;9.43;;
8044;SDS011;4065;48.754;9.982;2024-01-15T12:28:45;10.77;;;9.18;;
8044;SDS011;4065;48.754;9.982;2024-01-15T12:32:08;11.85;;;8.50;;
8044;SDS011;4065;48.754;9.982;2024-01-15T12:35:31;12.80;;;8.80;;
8044;SDS011;4065;48.754;9.982;2024-01-15T12:38:58;10.90;;;9.00;;
8044;SDS011;4065;48.754;9.982;2024-01-15T12:42:21;11.90;;;8.82;;
8044;SDS011;4065;48.754;9.982;2024-01-15T12:45:43;9.25;;;8.15;;
8044;SDS011;4065;48.754;9.982;2024-01-15T12:49:05;12.18;;;8.38;;
8044;SDS011;4065;48.754;9.982;2024-01-15T12:52:28;9.05;;;7.85;;
8044;SDS011;4065;48.754;9.982;2024-01-15T12:55:51;11.82;;;8.60;;
8044;SDS011;4065;48.754;9.982;2024-01-15T12:59:13;10.88;;;8.27;;
8044;SDS011;4065;48.754;9.982;2024-01-15T13:02:35;10.68;;;8.60;;
8044;SDS011;4065;48.754;9.982;2024-01-15T13:05:57;15.85;;;11.98;;
8044;SDS011;4065;48.754;9.982;2024-01-15T13:09:23;11.93;;;8.45;;
8044;SDS011;4065;48.754;9.982;2024-01-15T13:12:45;9.90;;;8.38;;
8044;SDS011;4065;48.754;9.982;2024-01-15T13:16:07;9.57;;;8.57;;
8044;SDS011;4065;48.754;9.982;2024-01-15T13:19:29;9.82;;;8.10;;
8044;SDS011;4065;48.754;9.982;2024-01-15T13:22:51;10.35;;;8.00;;
8044;SDS011;4065;48.754;9.982;2024-01-15T13:26:14;10.23;;;8.05;;
8044;SDS011;4065;48.754;9.982;2024-01-15T13:29:38;18.25;;;11.73;;
8044;SDS011;4065;48.754;9.982;2024-01-15T13:33:00;13.05;;;10.80;;
8044;SDS011;4065;48.754;9.982;2024-01-15T13:36:24;13.10;;;9.15;;
8044;SDS011;4065;48.754;9.982;2024-01-15T13:39:46;9.30;;;8.15;;
8044;SDS011;4065;48.754;9.982;2024-01-15T13:43:10;12.50;;;8.38;;
8044;SDS011;4065;48.754;9.982;2024-01-15T13:46:32;9.98;;;8.05;;
8044;SDS011;4065;48.754;9.982;2024-01-15T13:49:54;9.82;;;7.70;;
8044;SDS011;4065;48.754;9.982;2024-01-15T13:53:16;10.63;;;7.85;;
8044;SDS011;4065;48.754;9.982;2024-01-15T13:56:39;11.52;;;9.00;;
8044;SDS011;4065;48.754;9.982;2024-01-15T14:00:03;12.70;;;7.93;;
8044;SDS011;4065;48.754;9.982;2024-01-15T14:03:30;10.57;;;8.38;;
8044;SDS011;4065;48.754;9.982;2024-01-15T14:06:52;9.95;;;8.80;;
8044;SDS011;4065;48.754;9.982;2024-01-15T14:10:14;10.02;;;8.43;;
8044;SDS011;4065;48.754;9.982;2024-01-15T14:13:36;11.13;;;8.82;;
8044;SDS011;4065;48.754;9.982;2024-01-15T14:16:59;8.63;;;7.15;;
8044;SDS011;4065;48.754;9.982;2024-01-15T14:20:21;10.13;;;7.32;;
8044;SDS011;4065;48.754;9.982;2024-01-15T14:23:43;9.60;;;8.57;;
8044;SDS011;4065;48.754;9.982;2024-01-15T14:27:05;12.85;;;9.35;;
8044;SDS011;4065;48.754;9.982;2024-01-15T14:30:27;9.15;;;8.25;;
8044;SDS011;4065;48.754;9.982;2024-01-15T14:33:50;11.20;;;9.90;;
8044;SDS011;4065;48.754;9.982;2024-01-15T14:37:15;12.05;;;8.98;;
8044;SDS011;4065;48.754;9.982;2024-01-15T14:40:37;26.40;;;17.20;;
8044;SDS011;4065;48.754;9.982;2024-01-15T14:44:01;24.17;;;15.40;;
8044;SDS011;4065;48.754;9.982;2024-01-15T14:47:24;26.38;;;19.25;;
8044;SDS011;4065;48.754;9.982;2024-01-15T14:50:47;12.02;;;8.90;;
8044;SDS011;4065;48.754;9.982;2024-01-15T14:54:11;10.93;;;7.68;;
8044;SDS011;4065;48.754;9.982;2024-01-15T14:57:33;8.43;;;7.20;;
8044;SDS011;4065;48.754;9.982;2024-01-15T15:00:55;7.70;;;6.95;;
8044;SDS011;4065;48.754;9.982;2024-01-15T15:04:19;9.95;;;8.27;;
8044;SDS011;4065;48.754;9.982;2024-01-15T15:07:42;11.68;;;9.20;;
8044;SDS011;4065;48.754;9.982;2024-01-15T15:11:04;9.25;;;7.93;;
8044;SDS011;4065;48.754;9.982;2024-01-15T15:14:26;10.52;;;8.68;;
8044;SDS011;4065;48.754;9.982;2024-01-15T15:17:48;10.35;;;9.35;;
8044;SDS011;4065;48.754;9.982;2024-01-15T15:21:12;12.57;;;10.43;;
8044;SDS011;4065;48.754;9.982;2024-01-15T15:24:36;10.18;;;7.93;;
8044;SDS011;4065;48.754;9.982;2024-01-15T15:27:58;11.57;;;10.38;;
8044;SDS011;4065;48.754;9.982;2024-01-15T15:31:20;12.50;;;9.48;;
8044;SDS011;4065;48.754;9.982;2024-01-15T15:34:42;15.13;;;9.32;;
8044;SDS011;4065;48.754;9.982;2024-01-15T15:38:04;10.90;;;9.35;;
8044;SDS011;4065;48.754;9.982;2024-01-15T15:41:28;12.95;;;11.13;;
8044;SDS011;4065;48.754;9.982;2024-01-15T15:44:59;12.63;;;10.68;;
8044;SDS011;4065;48.754;9.982;2024-01-15T15:48:21;12.65;;;10.35;;
8044;SDS011;4065;48.754;9.982;2024-01-15T15:51:42;15.52;;;11.60;;
8044;SDS011;4065;48.754;9.982;2024-01-15T15:55:05;15.00;;;11.45;;
8044;SDS011;4065;48.754;9.982;2024-01-15T15:58:29;22.67;;;18.27;;
8044;SDS011;4065;48.754;9.982;2024-01-15T16:01:52;14.13;;;12.63;;
8044;SDS011;4065;48.754;9.982;2024-01-15T16:05:14;18.83;;;12.68;;
8044;SDS011;4065;48.754;9.982;2024-01-15T16:08:36;15.00;;;10.98;;
8044;SDS011;4065;48.754;9.982;2024-01-15T16:12:01;15.82;;;12.02;;
8044;SDS011;4065;48.754;9.982;2024-01-15T16:15:24;15.00;;;13.13;;
8044;SDS011;4065;48.754;9.982;2024-01-15T16:18:48;17.15;;;12.98;;
8044;SDS011;4065;48.754;9.982;2024-01-15T16:22:10;23.08;;;14.35;;
8044;SDS011;4065;48.754;9.982;2024-01-15T16:25:32;20.05;;;14.32;;
8044;SDS011;4065;48.754;9.982;2024-01-15T16:28:58;31.50;;;19.63;;
8044;SDS011;4065;48.754;9.982;2024-01-15T16:32:21;30.13;;;19.60;;
8044;SDS011;4065;48.754;9.982;2024-01-15T16:35:43;29.27;;;17.48;;
8044;SDS011;4065;48.754;9.982;2024-01-15T16:39:06;23.30;;;15.85;;
8044;SDS011;4065;48.754;9.982;2024-01-15T16:42:28;22.95;;;16.17;;
8044;SDS011;4065;48.754;9.982;2024-01-15T16:45:50;20.58;;;14.68;;
8044;SDS011;4065;48.754;9.982;2024-01-15T16:49:14;18.90;;;14.35;;
8044;SDS011;4065;48.754;9.982;2024-01-15T16:52:36;18.05;;;13.63;;
8044;SDS011;4065;48.754;9.982;2024-01-15T16:55:57;16.30;;;14.60;;
8044;SDS011;4065;48.754;9.982;2024-01-15T16:59:19;20.33;;;15.82;;
8044;SDS011;4065;48.754;9.982;2024-01-15T17:02:41;28.85;;;18.27;;
8044;SDS011;4065;48.754;9.982;2024-01-15T17:06:05;17.52;;;14.80;;
8044;SDS011;4065;48.754;9.982;2024-01-15T17:09:27;18.48;;;14.25;;
8044;SDS011;4065;48.754;9.982;2024-01-15T17:12:49;15.68;;;12.80;;
8044;SDS011;4065;48.754;9.982;2024-01-15T17:16:11;16.63;;;13.68;;
8044;SDS011;4065;48.754;9.982;2024-01-15T17:19:33;17.05;;;11.48;;
8044;SDS011;4065;48.754;9.982;2024-01-15T17:22:56;18.92;;;13.05;;
8044;SDS011;4065;48.754;9.982;2024-01-15T17:26:19;17.63;;;13.10;;
8044;SDS011;4065;48.754;9.982;2024-01-15T17:29:41;14.55;;;11.95;;
8044;SDS011;4065;48.754;9.982;2024-01-15T17:33:03;14.75;;;11.75;;
8044;SDS011;4065;48.754;9.982;2024-01-15T17:36:25;20.83;;;13.05;;
8044;SDS011;4065;48.754;9.982;2024-01-15T17:39:49;16.25;;;12.27;;
8044;SDS011;4065;48.754;9.982;2024-01-15T17:43:11;15.32;;;10.48;;
8044;SDS011;4065;48.754;9.982;2024-01-15T17:46:33;15.88;;;11.40;;
8044;SDS011;4065;48.754;9.982;2024-01-15T17:49:55;14.35;;;10.50;;
8044;SDS011;4065;48.754;9.982;2024-01-15T17:53:17;17.75;;;11.40;;
8044;SDS011;4065;48.754;9.982;2024-01-15T17:56:40;13.75;;;11.27;;
8044;SDS011;4065;48.754;9.982;2024-01-15T18:00:02;14.82;;;11.13;;
8044;SDS011;4065;48.754;9.982;2024-01-15T18:03:27;14.82;;;11.38;;
8044;SDS011;4065;48.754;9.982;2024-01-15T18:06:49;20.25;;;14.20;;
8044;SDS011;4065;48.754;9.982;2024-01-15T18:10:12;15.15;;;10.75;;
8044;SDS011;4065;48.754;9.982;2024-01-15T18:13:35;16.65;;;12.15;;
8044;SDS011;4065;48.754;9.982;2024-01-15T18:16:57;20.42;;;15.35;;
8044;SDS011;4065;48.754;9.982;2024-01-15T18:20:20;16.73;;;12.27;;
8044;SDS011;4065;48.754;9.982;2024-01-15T18:23:42;23.95;;;17.60;;
8044;SDS011;4065;48.754;9.982;2024-01-15T18:27:04;18.20;;;14.00;;
8044;SDS011;4065;48.754;9.982;2024-01-15T18:30:27;14.20;;;11.75;;
8044;SDS011;4065;48.754;9.982;2024-01-15T18:33:50;17.13;;;11.73;;
8044;SDS011;4065;48.754;9.982;2024-01-15T18:37:12;14.40;;;11.63;;
8044;SDS011;4065;48.754;9.982;2024-01-15T18:40:36;14.68;;;11.52;;
8044;SDS011;4065;48.754;9.982;2024-01-15T18:43:58;16.08;;;12.07;;
8044;SDS011;4065;48.754;9.982;2024-01-15T18:47:21;13.02;;;10.73;;
8044;SDS011;4065;48.754;9.982;2024-01-15T18:50:43;15.90;;;11.80;;
8044;SDS011;4065;48.754;9.982;2024-01-15T18:54:05;14.48;;;10.82;;
8044;SDS011;4065;48.754;9.982;2024-01-15T18:57:27;16.25;;;11.93;;
8044;SDS011;4065;48.754;9.982;2024-01-15T19:00:49;18.30;;;11.93;;
8044;SDS011;4065;48.754;9.982;2024-01-15T19:04:12;16.42;;;13.05;;
8044;SDS011;4065;48.754;9.982;2024-01-15T19:07:35;16.60;;;13.35;;
8044;SDS011;4065;48.754;9.982;2024-01-15T19:10:57;15.65;;;11.45;;
8044;SDS011;4065;48.754;9.982;2024-01-15T19:14:19;20.58;;;14.23;;
8044;SDS011;4065;48.754;9.982;2024-01-15T19:17:41;22.40;;;15.55;;
8044;SDS011;4065;48.754;9.982;2024-01-15T19:21:06;18.65;;;13.68;;
8044;SDS011;4065;48.754;9.982;2024-01-15T19:24:28;20.80;;;12.45;;
8044;SDS011;4065;48.754;9.982;2024-01-15T19:27:50;19.00;;;12.75;;
8044;SDS011;4065;48.754;9.982;2024-01-15T19:31:12;18.73;;;14.07;;
8044;SDS011;4065;48.754;9.982;2024-01-15T19:34:34;26.70;;;16.45;;
8044;SDS011;4065;48.754;9.982;2024-01-15T19:37:59;26.83;;;15.85;;
8044;SDS011;4065;48.754;9.982;2024-01-15T19:41:22;19.98;;;13.73;;
8044;SDS011;4065;48.754;9.982;2024-01-15T19:44:44;16.42;;;11.40;;
8044;SDS011;4065;48.754;9.982;2024-01-15T19:48:06;25.92;;;14.60;;
8044;SDS011;4065;48.754;9.982;2024-01-15T19:51:29;48.28;;;24.33;;
8044;SDS011;4065;48.754;9.982;2024-01-15T19:54:52;80.03;;;42.42;;
8044;SDS011;4065;48.754;9.982;2024-01-15T19:58:14;49.45;;;29.73;;
8044;SDS011;4065;48.754;9.982;2024-01-15T20:01:36;49.33;;;28.92;;
8044;SDS011;4065;48.754;9.982;2024-01-15T20:04:58;33.03;;;21.05;;
8044;SDS011;4065;48.754;9.982;2024-01-15T20:08:21;32.40;;;22.38;;
8044;SDS011;4065;48.754;9.982;2024-01-15T20:11:44;18.38;;;15.05;;
8044;SDS011;4065;48.754;9.982;2024-01-15T20:15:07;21.00;;;12.07;;
8044;SDS011;4065;48.754;9.982;2024-01-15T20:18:29;20.17;;;15.25;;
8044;SDS011;4065;48.754;9.982;2024-01-15T20:21:51;19.90;;;13.63;;
8044;SDS011;4065;48.754;9.982;2024-01-15T20:25:13;14.70;;;12.77;;
8044;SDS011;4065;48.754;9.982;2024-01-15T20:28:37;11.82;;;9.82;;
8044;SDS011;4065;48.754;9.982;2024-01-15T20:31:58;11.90;;;9.70;;
8044;SDS011;4065;48.754;9.982;2024-01-15T20:35:23;11.35;;;8.25;;
8044;SDS011;4065;48.754;9.982;2024-01-15T20:38:45;11.38;;;9.52;;
8044;SDS011;4065;48.754;9.982;2024-01-15T20:42:07;9.27;;;7.80;;